sensor_id;sensor_type;location;lat;lon;timestamp;pressure;altitude;pressure_sealevel;temperature;humidity
7940;BME280;4015;48.888;9.226;2024-01-10T00:01:13;160266.28;;;19.98;48.85
7940;BME280;4015;48.888;9.226;2024-01-10T00:03:39;160268.88;;;19.99;49.08
7940;BME280;4015;48.888;9.226;2024-01-10T00:06:04;160254.75;;;19.93;48.79
7940;BME280;4015;48.888;9.226;2024-01-10T00:08:30;160249.56;;;19.91;49.00
7940;BME280;4015;48.888;9.226;2024-01-10T00:10:55;160250.84;;;19.92;49.30
7940;BME280;4015;48.888;9.226;2024-01-10T00:13:20;160244.47;;;19.89;49.13
7940;BME280;4015;48.888;9.226;2024-01-10T00:15:47;160241.91;;;19.88;49.22
7940;BME280;4015;48.888;9.226;2024-01-10T00:18:13;160232.88;;;19.85;49.17
7940;BME280;4015;48.888;9.226;2024-01-10T00:20:38;160225.19;;;19.82;49.11
7940;BME280;4015;48.888;9.226;2024-01-10T00:23:05;160227.75;;;19.83;49.01
7940;BME280;4015;48.888;9.226;2024-01-10T00:25:31;160225.19;;;19.82;48.93
7940;BME280;4015;48.888;9.226;2024-01-10T00:27:56;160223.91;;;19.81;49.27
7940;BME280;4015;48.888;9.226;2024-01-10T00:30:22;160221.34;;;19.80;49.50
7940;BME280;4015;48.888;9.226;2024-01-10T00:32:47;160218.75;;;19.79;49.51
7940;BME280;4015;48.888;9.226;2024-01-10T00:35:12;160222.63;;;19.81;48.99
7940;BME280;4015;48.888;9.226;2024-01-10T00:37:38;160238.06;;;19.87;48.95
7940;BME280;4015;48.888;9.226;2024-01-10T00:40:03;160247.00;;;19.90;49.23
7940;BME280;4015;48.888;9.226;2024-01-10T00:42:29;160263.72;;;19.97;48.89
7940;BME280;4015;48.888;9.226;2024-01-10T00:44:54;160280.41;;;20.04;48.96
7940;BME280;4015;48.888;9.226;2024-01-10T00:47:19;160295.81;;;20.10;48.30
7940;BME280;4015;48.888;9.226;2024-01-10T00:49:45;160311.25;;;20.16;48.77
7940;BME280;4015;48.888;9.226;2024-01-10T00:52:10;160345.91;;;20.30;48.20
7940;BME280;4015;48.888;9.226;2024-01-10T00:54:35;160353.66;;;20.33;48.45
7940;BME280;4015;48.888;9.226;2024-01-10T00:57:01;160371.63;;;20.40;47.86
7940;BME280;4015;48.888;9.226;2024-01-10T00:59:26;160383.22;;;20.44;47.64
7940;BME280;4015;48.888;9.226;2024-01-10T01:01:51;160401.25;;;20.52;47.69
7940;BME280;4015;48.888;9.226;2024-01-10T01:04:17;160430.81;;;20.63;47.65
7940;BME280;4015;48.888;9.226;2024-01-10T01:06:43;160429.53;;;20.63;47.86
7940;BME280;4015;48.888;9.226;2024-01-10T01:09:08;160444.94;;;20.69;47.31
7940;BME280;4015;48.888;9.226;2024-01-10T01:11:33;160456.47;;;20.73;47.52
7940;BME280;4015;48.888;9.226;2024-01-10T01:13:59;160468.03;;;20.78;47.45
7940;BME280;4015;48.888;9.226;2024-01-10T01:16:24;160484.75;;;20.85;46.95
7940;BME280;4015;48.888;9.226;2024-01-10T01:18:49;160496.34;;;20.89;47.26
7940;BME280;4015;48.888;9.226;2024-01-10T01:21:15;160501.47;;;20.91;46.99
7940;BME280;4015;48.888;9.226;2024-01-10T01:23:40;160493.78;;;20.88;47.00
7940;BME280;4015;48.888;9.226;2024-01-10T01:26:05;160500.19;;;20.91;47.04
7940;BME280;4015;48.888;9.226;2024-01-10T01:28:31;160492.50;;;20.88;46.93
7940;BME280;4015;48.888;9.226;2024-01-10T01:30:57;160492.50;;;20.88;46.76
7940;BME280;4015;48.888;9.226;2024-01-10T01:33:22;160488.59;;;20.86;46.84
7940;BME280;4015;48.888;9.226;2024-01-10T01:35:48;160486.03;;;20.85;47.04
7940;BME280;4015;48.888;9.226;2024-01-10T01:38:13;160480.91;;;20.83;46.60
7940;BME280;4015;48.888;9.226;2024-01-10T01:40:39;160471.88;;;20.80;47.09
7940;BME280;4015;48.888;9.226;2024-01-10T01:43:24;160468.03;;;20.78;46.90
7940;BME280;4015;48.888;9.226;2024-01-10T01:45:52;160459.09;;;20.74;47.29
7940;BME280;4015;48.888;9.226;2024-01-10T01:48:18;160452.63;;;20.72;47.27
7940;BME280;4015;48.888;9.226;2024-01-10T01:50:45;160453.91;;;20.72;47.24
7940;BME280;4015;48.888;9.226;2024-01-10T01:53:13;160465.47;;;20.77;46.67
7940;BME280;4015;48.888;9.226;2024-01-10T01:55:39;160464.19;;;20.77;47.13
7940;BME280;4015;48.888;9.226;2024-01-10T01:58:04;160479.63;;;20.83;46.78
7940;BME280;4015;48.888;9.226;2024-01-10T02:00:29;160452.63;;;20.72;47.23
7940;BME280;4015;48.888;9.226;2024-01-10T02:02:57;160453.91;;;20.72;47.31
7940;BME280;4015;48.888;9.226;2024-01-10T02:05:24;160452.63;;;20.72;47.19
7940;BME280;4015;48.888;9.226;2024-01-10T02:07:49;160451.34;;;20.71;47.19
7940;BME280;4015;48.888;9.226;2024-01-10T02:10:15;160460.38;;;20.75;47.33
7940;BME280;4015;48.888;9.226;2024-01-10T02:12:40;160456.47;;;20.73;47.03
7940;BME280;4015;48.888;9.226;2024-01-10T02:15:06;160448.78;;;20.70;47.03
7940;BME280;4015;48.888;9.226;2024-01-10T02:17:31;160439.78;;;20.67;47.39
7940;BME280;4015;48.888;9.226;2024-01-10T02:20:12;160428.25;;;20.62;47.10
7940;BME280;4015;48.888;9.226;2024-01-10T02:22:37;160426.97;;;20.62;47.30
7940;BME280;4015;48.888;9.226;2024-01-10T02:25:07;160429.53;;;20.63;47.52
7940;BME280;4015;48.888;9.226;2024-01-10T02:27:34;160423.06;;;20.60;47.10
7940;BME280;4015;48.888;9.226;2024-01-10T02:30:02;160442.38;;;20.68;47.44
7940;BME280;4015;48.888;9.226;2024-01-10T02:32:27;160417.94;;;20.58;47.35
7940;BME280;4015;48.888;9.226;2024-01-10T02:34:53;160420.50;;;20.59;47.11
7940;BME280;4015;48.888;9.226;2024-01-10T02:37:18;160425.63;;;20.61;46.86
7940;BME280;4015;48.888;9.226;2024-01-10T02:39:43;160428.25;;;20.62;47.25
7940;BME280;4015;48.888;9.226;2024-01-10T02:42:09;160415.38;;;20.57;47.25
7940;BME280;4015;48.888;9.226;2024-01-10T02:44:34;160415.38;;;20.57;47.18
7940;BME280;4015;48.888;9.226;2024-01-10T02:46:59;160401.25;;;20.52;47.59
7940;BME280;4015;48.888;9.226;2024-01-10T02:49:24;160425.63;;;20.61;47.39
7940;BME280;4015;48.888;9.226;2024-01-10T02:51:50;160414.09;;;20.57;47.38
7940;BME280;4015;48.888;9.226;2024-01-10T02:54:15;160411.53;;;20.56;47.39
7940;BME280;4015;48.888;9.226;2024-01-10T02:56:40;160403.81;;;20.53;47.35
7940;BME280;4015;48.888;9.226;2024-01-10T02:59:06;160403.81;;;20.53;47.65
7940;BME280;4015;48.888;9.226;2024-01-10T03:01:31;160405.09;;;20.53;47.44
7940;BME280;4015;48.888;9.226;2024-01-10T03:03:56;160398.69;;;20.51;47.29
7940;BME280;4015;48.888;9.226;2024-01-10T03:06:21;160398.69;;;20.51;47.77
7940;BME280;4015;48.888;9.226;2024-01-10T03:08:47;160412.81;;;20.56;47.31
7940;BME280;4015;48.888;9.226;2024-01-10T03:11:12;160401.25;;;20.52;47.73
7940;BME280;4015;48.888;9.226;2024-01-10T03:13:37;160406.38;;;20.54;47.42
7940;BME280;4015;48.888;9.226;2024-01-10T03:16:04;160406.38;;;20.54;47.55
7940;BME280;4015;48.888;9.226;2024-01-10T03:18:29;160394.84;;;20.49;47.87
7940;BME280;4015;48.888;9.226;2024-01-10T03:20:55;160398.69;;;20.51;47.44
7940;BME280;4015;48.888;9.226;2024-01-10T03:23:21;160397.41;;;20.50;47.52
7940;BME280;4015;48.888;9.226;2024-01-10T03:25:47;160407.66;;;20.54;47.33
7940;BME280;4015;48.888;9.226;2024-01-10T03:28:15;160392.22;;;20.48;47.22
7940;BME280;4015;48.888;9.226;2024-01-10T03:30:41;160408.94;;;20.55;47.42
7940;BME280;4015;48.888;9.226;2024-01-10T03:33:07;160401.25;;;20.52;47.58
7940;BME280;4015;48.888;9.226;2024-01-10T03:35:32;160394.84;;;20.49;47.44
7940;BME280;4015;48.888;9.226;2024-01-10T03:37:57;160401.25;;;20.52;47.33
7940;BME280;4015;48.888;9.226;2024-01-10T03:40:22;160405.09;;;20.53;47.19
7940;BME280;4015;48.888;9.226;2024-01-10T03:42:48;160399.97;;;20.51;47.67
7940;BME280;4015;48.888;9.226;2024-01-10T03:45:13;160392.22;;;20.48;47.14
7940;BME280;4015;48.888;9.226;2024-01-10T03:47:41;160398.69;;;20.51;47.51
7940;BME280;4015;48.888;9.226;2024-01-10T03:50:07;160393.50;;;20.48;47.66
7940;BME280;4015;48.888;9.226;2024-01-10T03:52:33;160394.84;;;20.49;47.32
7940;BME280;4015;48.888;9.226;2024-01-10T03:54:59;160388.38;;;20.46;47.93
7940;BME280;4015;48.888;9.226;2024-01-10T03:57:24;160385.81;;;20.45;47.62
7940;BME280;4015;48.888;9.226;2024-01-10T03:59:49;160398.69;;;20.51;47.57
7940;BME280;4015;48.888;9.226;2024-01-10T04:02:15;160417.94;;;20.58;47.56
7940;BME280;4015;48.888;9.226;2024-01-10T04:04:40;160415.38;;;20.57;47.46
7940;BME280;4015;48.888;9.226;2024-01-10T04:07:06;160421.78;;;20.60;47.19
7940;BME280;4015;48.888;9.226;2024-01-10T04:09:31;160406.38;;;20.54;47.05
7940;BME280;4015;48.888;9.226;2024-01-10T04:11:56;160406.38;;;20.54;47.41
7940;BME280;4015;48.888;9.226;2024-01-10T04:14:22;160406.38;;;20.54;47.65
7940;BME280;4015;48.888;9.226;2024-01-10T04:16:47;160412.81;;;20.56;47.03
7940;BME280;4015;48.888;9.226;2024-01-10T04:19:13;160420.50;;;20.59;47.38
7940;BME280;4015;48.888;9.226;2024-01-10T04:21:38;160416.66;;;20.58;47.60
7940;BME280;4015;48.888;9.226;2024-01-10T04:24:04;160406.38;;;20.54;47.47
7940;BME280;4015;48.888;9.226;2024-01-10T04:26:30;160394.84;;;20.49;47.43
7940;BME280;4015;48.888;9.226;2024-01-10T04:28:55;160403.81;;;20.53;47.32
7940;BME280;4015;48.888;9.226;2024-01-10T04:31:21;160394.84;;;20.49;47.15
7940;BME280;4015;48.888;9.226;2024-01-10T04:33:46;160406.38;;;20.54;47.41
7940;BME280;4015;48.888;9.226;2024-01-10T04:36:11;160390.94;;;20.47;47.86
7940;BME280;4015;48.888;9.226;2024-01-10T04:38:36;160414.09;;;20.57;47.43
7940;BME280;4015;48.888;9.226;2024-01-10T04:41:02;160403.81;;;20.53;47.51
7940;BME280;4015;48.888;9.226;2024-01-10T04:43:27;160401.25;;;20.52;47.71
7940;BME280;4015;48.888;9.226;2024-01-10T04:45:52;160415.38;;;20.57;47.69
7940;BME280;4015;48.888;9.226;2024-01-10T04:48:18;160423.06;;;20.60;47.28
7940;BME280;4015;48.888;9.226;2024-01-10T04:50:43;160425.63;;;20.61;47.52
7940;BME280;4015;48.888;9.226;2024-01-10T04:53:08;160420.50;;;20.59;47.40
7940;BME280;4015;48.888;9.226;2024-01-10T04:55:33;160444.94;;;20.69;47.13
7940;BME280;4015;48.888;9.226;2024-01-10T04:57:59;160429.53;;;20.63;47.39
7940;BME280;4015;48.888;9.226;2024-01-10T05:00:25;160429.53;;;20.63;47.16
7940;BME280;4015;48.888;9.226;2024-01-10T05:02:50;160410.22;;;20.55;47.38
7940;BME280;4015;48.888;9.226;2024-01-10T05:05:15;160429.53;;;20.63;47.32
7940;BME280;4015;48.888;9.226;2024-01-10T05:07:41;160408.94;;;20.55;47.33
7940;BME280;4015;48.888;9.226;2024-01-10T05:10:06;160407.66;;;20.54;47.23
7940;BME280;4015;48.888;9.226;2024-01-10T05:12:32;160401.25;;;20.52;47.14
7940;BME280;4015;48.888;9.226;2024-01-10T05:14:57;160414.09;;;20.57;47.32
7940;BME280;4015;48.888;9.226;2024-01-10T05:17:23;160411.53;;;20.56;47.48
7940;BME280;4015;48.888;9.226;2024-01-10T05:19:48;160414.09;;;20.57;47.45
7940;BME280;4015;48.888;9.226;2024-01-10T05:22:13;160408.94;;;20.55;47.57
7940;BME280;4015;48.888;9.226;2024-01-10T05:24:39;160407.66;;;20.54;47.50
7940;BME280;4015;48.888;9.226;2024-01-10T05:27:04;160412.81;;;20.56;47.38
7940;BME280;4015;48.888;9.226;2024-01-10T05:29:30;160425.63;;;20.61;47.06
7940;BME280;4015;48.888;9.226;2024-01-10T05:31:55;160419.22;;;20.59;47.55
7940;BME280;4015;48.888;9.226;2024-01-10T05:34:20;160417.94;;;20.58;47.54
7940;BME280;4015;48.888;9.226;2024-01-10T05:36:46;160425.63;;;20.61;47.31
7940;BME280;4015;48.888;9.226;2024-01-10T05:39:11;160416.66;;;20.58;47.79
7940;BME280;4015;48.888;9.226;2024-01-10T05:41:40;160420.50;;;20.59;47.46
7940;BME280;4015;48.888;9.226;2024-01-10T05:44:06;160437.22;;;20.66;47.16
7940;BME280;4015;48.888;9.226;2024-01-10T05:46:31;160428.25;;;20.62;47.20
7940;BME280;4015;48.888;9.226;2024-01-10T05:48:57;160423.06;;;20.60;47.45
7940;BME280;4015;48.888;9.226;2024-01-10T05:51:22;160405.09;;;20.53;47.24
7940;BME280;4015;48.888;9.226;2024-01-10T05:53:47;160388.38;;;20.46;47.64
7940;BME280;4015;48.888;9.226;2024-01-10T05:56:13;160401.25;;;20.52;47.74
7940;BME280;4015;48.888;9.226;2024-01-10T05:58:38;160387.09;;;20.46;47.68
7940;BME280;4015;48.888;9.226;2024-01-10T06:01:05;160394.84;;;20.49;47.34
7940;BME280;4015;48.888;9.226;2024-01-10T06:03:33;160388.38;;;20.46;47.76
7940;BME280;4015;48.888;9.226;2024-01-10T06:05:59;160402.53;;;20.52;47.60
7940;BME280;4015;48.888;9.226;2024-01-10T06:08:24;160403.81;;;20.53;47.55
7940;BME280;4015;48.888;9.226;2024-01-10T06:10:51;160410.22;;;20.55;47.64
7940;BME280;4015;48.888;9.226;2024-01-10T06:13:17;160412.81;;;20.56;47.48
7940;BME280;4015;48.888;9.226;2024-01-10T06:15:42;160410.22;;;20.55;47.50
7940;BME280;4015;48.888;9.226;2024-01-10T06:18:08;160426.97;;;20.62;47.04
7940;BME280;4015;48.888;9.226;2024-01-10T06:20:33;160412.81;;;20.56;47.42
7940;BME280;4015;48.888;9.226;2024-01-10T06:23:00;160407.66;;;20.54;47.50
7940;BME280;4015;48.888;9.226;2024-01-10T06:25:26;160408.94;;;20.55;47.34
7940;BME280;4015;48.888;9.226;2024-01-10T06:27:52;160417.94;;;20.58;47.76
7940;BME280;4015;48.888;9.226;2024-01-10T06:30:18;160414.09;;;20.57;47.48
7940;BME280;4015;48.888;9.226;2024-01-10T06:32:43;160401.25;;;20.52;47.46
7940;BME280;4015;48.888;9.226;2024-01-10T06:35:08;160408.94;;;20.55;47.37
7940;BME280;4015;48.888;9.226;2024-01-10T06:37:34;160417.94;;;20.58;47.39
7940;BME280;4015;48.888;9.226;2024-01-10T06:40:00;160414.09;;;20.57;47.31
7940;BME280;4015;48.888;9.226;2024-01-10T06:42:25;160408.94;;;20.55;47.45
7940;BME280;4015;48.888;9.226;2024-01-10T06:44:51;160408.94;;;20.55;47.81
7940;BME280;4015;48.888;9.226;2024-01-10T06:47:16;160406.38;;;20.54;47.34
7940;BME280;4015;48.888;9.226;2024-01-10T06:49:42;160408.94;;;20.55;47.49
7940;BME280;4015;48.888;9.226;2024-01-10T06:52:08;160406.38;;;20.54;47.51
7940;BME280;4015;48.888;9.226;2024-01-10T06:54:33;160405.09;;;20.53;47.73
7940;BME280;4015;48.888;9.226;2024-01-10T06:56:58;160417.94;;;20.58;47.33
7940;BME280;4015;48.888;9.226;2024-01-10T06:59:24;160426.97;;;20.62;47.45
7940;BME280;4015;48.888;9.226;2024-01-10T07:01:52;160428.25;;;20.62;47.68
7940;BME280;4015;48.888;9.226;2024-01-10T07:04:18;160433.34;;;20.64;47.19
7940;BME280;4015;48.888;9.226;2024-01-10T07:06:43;160425.63;;;20.61;47.31
7940;BME280;4015;48.888;9.226;2024-01-10T07:09:09;160416.66;;;20.58;47.24
7940;BME280;4015;48.888;9.226;2024-01-10T07:11:35;160412.81;;;20.56;47.77
7940;BME280;4015;48.888;9.226;2024-01-10T07:14:00;160412.81;;;20.56;47.17
7940;BME280;4015;48.888;9.226;2024-01-10T07:16:26;160403.81;;;20.53;47.48
7940;BME280;4015;48.888;9.226;2024-01-10T07:18:51;160401.25;;;20.52;47.54
7940;BME280;4015;48.888;9.226;2024-01-10T07:21:17;160385.81;;;20.45;47.62
7940;BME280;4015;48.888;9.226;2024-01-10T07:23:42;160397.41;;;20.50;47.59
7940;BME280;4015;48.888;9.226;2024-01-10T07:26:08;160403.81;;;20.53;47.16
7940;BME280;4015;48.888;9.226;2024-01-10T07:28:34;160412.81;;;20.56;47.33
7940;BME280;4015;48.888;9.226;2024-01-10T07:30:59;160402.53;;;20.52;47.29
7940;BME280;4015;48.888;9.226;2024-01-10T07:33:27;160403.81;;;20.53;47.26
7940;BME280;4015;48.888;9.226;2024-01-10T07:35:56;160402.53;;;20.52;47.21
7940;BME280;4015;48.888;9.226;2024-01-10T07:38:21;160426.97;;;20.62;47.30
7940;BME280;4015;48.888;9.226;2024-01-10T07:40:47;160420.50;;;20.59;47.33
7940;BME280;4015;48.888;9.226;2024-01-10T07:43:12;160408.94;;;20.55;47.58
7940;BME280;4015;48.888;9.226;2024-01-10T07:45:37;160406.38;;;20.54;47.96
7940;BME280;4015;48.888;9.226;2024-01-10T07:48:03;160393.50;;;20.48;47.54
7940;BME280;4015;48.888;9.226;2024-01-10T07:50:28;160407.66;;;20.54;47.52
7940;BME280;4015;48.888;9.226;2024-01-10T07:52:54;160390.94;;;20.47;47.66
7940;BME280;4015;48.888;9.226;2024-01-10T07:55:19;160415.38;;;20.57;47.22
7940;BME280;4015;48.888;9.226;2024-01-10T07:57:44;160397.41;;;20.50;47.86
7940;BME280;4015;48.888;9.226;2024-01-10T08:00:10;160397.41;;;20.50;47.71
7940;BME280;4015;48.888;9.226;2024-01-10T08:02:38;160402.53;;;20.52;47.27
7940;BME280;4015;48.888;9.226;2024-01-10T08:05:06;160384.53;;;20.45;47.46
7940;BME280;4015;48.888;9.226;2024-01-10T08:07:38;160399.97;;;20.51;47.48
7940;BME280;4015;48.888;9.226;2024-01-10T08:10:07;160398.69;;;20.51;47.32
7940;BME280;4015;48.888;9.226;2024-01-10T08:12:34;160414.09;;;20.57;47.78
7940;BME280;4015;48.888;9.226;2024-01-10T08:15:00;160406.38;;;20.54;47.42
7940;BME280;4015;48.888;9.226;2024-01-10T08:17:25;160408.94;;;20.55;47.52
7940;BME280;4015;48.888;9.226;2024-01-10T08:19:51;160407.66;;;20.54;47.62
7940;BME280;4015;48.888;9.226;2024-01-10T08:22:17;160402.53;;;20.52;47.64
7940;BME280;4015;48.888;9.226;2024-01-10T08:24:42;160405.09;;;20.53;47.33
7940;BME280;4015;48.888;9.226;2024-01-10T08:27:09;160423.06;;;20.60;47.62
7940;BME280;4015;48.888;9.226;2024-01-10T08:29:34;160417.94;;;20.58;47.50
7940;BME280;4015;48.888;9.226;2024-01-10T08:32:00;160402.53;;;20.52;47.49
7940;BME280;4015;48.888;9.226;2024-01-10T08:34:25;160397.41;;;20.50;47.75
7940;BME280;4015;48.888;9.226;2024-01-10T08:36:52;160398.69;;;20.51;47.57
7940;BME280;4015;48.888;9.226;2024-01-10T08:39:18;160406.38;;;20.54;47.65
7940;BME280;4015;48.888;9.226;2024-01-10T08:41:44;160392.22;;;20.48;47.72
7940;BME280;4015;48.888;9.226;2024-01-10T08:44:13;160384.53;;;20.45;47.98
7940;BME280;4015;48.888;9.226;2024-01-10T08:46:38;160379.38;;;20.43;47.53
7940;BME280;4015;48.888;9.226;2024-01-10T08:49:04;160388.38;;;20.46;47.73
7940;BME280;4015;48.888;9.226;2024-01-10T08:51:29;160401.25;;;20.52;47.69
7940;BME280;4015;48.888;9.226;2024-01-10T08:53:55;160388.38;;;20.46;47.74
7940;BME280;4015;48.888;9.226;2024-01-10T08:56:22;160393.50;;;20.48;47.60
7940;BME280;4015;48.888;9.226;2024-01-10T08:58:47;160393.50;;;20.48;47.86
7940;BME280;4015;48.888;9.226;2024-01-10T09:01:12;160392.22;;;20.48;47.46
7940;BME280;4015;48.888;9.226;2024-01-10T09:03:38;160394.84;;;20.49;47.46
7940;BME280;4015;48.888;9.226;2024-01-10T09:06:04;160393.50;;;20.48;48.00
7940;BME280;4015;48.888;9.226;2024-01-10T09:08:30;160392.22;;;20.48;47.55
7940;BME280;4015;48.888;9.226;2024-01-10T09:10:56;160410.22;;;20.55;47.61
7940;BME280;4015;48.888;9.226;2024-01-10T09:13:21;160407.66;;;20.54;47.79
7940;BME280;4015;48.888;9.226;2024-01-10T09:15:46;160392.22;;;20.48;48.03
7940;BME280;4015;48.888;9.226;2024-01-10T09:18:11;160389.66;;;20.47;47.73
7940;BME280;4015;48.888;9.226;2024-01-10T09:20:37;160380.66;;;20.43;47.83
7940;BME280;4015;48.888;9.226;2024-01-10T09:23:03;160390.94;;;20.47;47.48
7940;BME280;4015;48.888;9.226;2024-01-10T09:25:28;160387.09;;;20.46;47.86
7940;BME280;4015;48.888;9.226;2024-01-10T09:27:54;160390.94;;;20.47;48.08
7940;BME280;4015;48.888;9.226;2024-01-10T09:30:20;160390.94;;;20.47;47.78
7940;BME280;4015;48.888;9.226;2024-01-10T09:32:45;160390.94;;;20.47;47.87
7940;BME280;4015;48.888;9.226;2024-01-10T09:35:11;160394.84;;;20.49;48.13
7940;BME280;4015;48.888;9.226;2024-01-10T09:37:36;160388.38;;;20.46;47.89
7940;BME280;4015;48.888;9.226;2024-01-10T09:40:02;160384.53;;;20.45;47.65
7940;BME280;4015;48.888;9.226;2024-01-10T09:42:27;160402.53;;;20.52;47.96
7940;BME280;4015;48.888;9.226;2024-01-10T09:44:56;160390.94;;;20.47;48.26
7940;BME280;4015;48.888;9.226;2024-01-10T09:47:22;160398.69;;;20.51;47.57
7940;BME280;4015;48.888;9.226;2024-01-10T09:49:47;160389.66;;;20.47;48.04
7940;BME280;4015;48.888;9.226;2024-01-10T09:52:23;160396.13;;;20.50;47.83
7940;BME280;4015;48.888;9.226;2024-01-10T09:54:54;160399.97;;;20.51;48.12
7940;BME280;4015;48.888;9.226;2024-01-10T09:57:19;160387.09;;;20.46;47.75
7940;BME280;4015;48.888;9.226;2024-01-10T09:59:47;160403.81;;;20.53;48.01
7940;BME280;4015;48.888;9.226;2024-01-10T10:02:13;160392.22;;;20.48;47.76
7940;BME280;4015;48.888;9.226;2024-01-10T10:04:40;160381.94;;;20.44;47.84
7940;BME280;4015;48.888;9.226;2024-01-10T10:07:08;160394.84;;;20.49;47.88
7940;BME280;4015;48.888;9.226;2024-01-10T10:09:33;160381.94;;;20.44;48.07
7940;BME280;4015;48.888;9.226;2024-01-10T10:11:59;160393.50;;;20.48;47.94
7940;BME280;4015;48.888;9.226;2024-01-10T10:14:28;160383.22;;;20.44;48.40
7940;BME280;4015;48.888;9.226;2024-01-10T10:16:53;160381.94;;;20.44;47.80
7940;BME280;4015;48.888;9.226;2024-01-10T10:19:25;160390.94;;;20.47;48.05
7940;BME280;4015;48.888;9.226;2024-01-10T10:21:51;160387.09;;;20.46;48.05
7940;BME280;4015;48.888;9.226;2024-01-10T10:24:16;160398.69;;;20.51;47.88
7940;BME280;4015;48.888;9.226;2024-01-10T10:26:42;160388.38;;;20.46;48.15
7940;BME280;4015;48.888;9.226;2024-01-10T10:29:09;160384.53;;;20.45;47.75
7940;BME280;4015;48.888;9.226;2024-01-10T10:31:35;160388.38;;;20.46;47.75
7940;BME280;4015;48.888;9.226;2024-01-10T10:34:01;160397.41;;;20.50;47.89
7940;BME280;4015;48.888;9.226;2024-01-10T10:36:30;160390.94;;;20.47;47.97
7940;BME280;4015;48.888;9.226;2024-01-10T10:38:59;160388.38;;;20.46;47.96
7940;BME280;4015;48.888;9.226;2024-01-10T10:41:25;160385.81;;;20.45;47.93
7940;BME280;4015;48.888;9.226;2024-01-10T10:43:53;160381.94;;;20.44;47.95
7940;BME280;4015;48.888;9.226;2024-01-10T10:46:20;160392.22;;;20.48;48.30
7940;BME280;4015;48.888;9.226;2024-01-10T10:48:48;160384.53;;;20.45;47.80
7940;BME280;4015;48.888;9.226;2024-01-10T10:51:23;160383.22;;;20.44;47.87
7940;BME280;4015;48.888;9.226;2024-01-10T10:53:53;160376.75;;;20.42;48.18
7940;BME280;4015;48.888;9.226;2024-01-10T10:56:19;160381.94;;;20.44;48.07
7940;BME280;4015;48.888;9.226;2024-01-10T10:58:45;160381.94;;;20.44;47.87
7940;BME280;4015;48.888;9.226;2024-01-10T11:01:12;160388.38;;;20.46;48.13
7940;BME280;4015;48.888;9.226;2024-01-10T11:03:39;160388.38;;;20.46;48.19
7940;BME280;4015;48.888;9.226;2024-01-10T11:06:06;160389.66;;;20.47;47.98
7940;BME280;4015;48.888;9.226;2024-01-10T11:08:48;160385.81;;;20.45;47.73
7940;BME280;4015;48.888;9.226;2024-01-10T11:22:41;160389.66;;;20.47;48.02
7940;BME280;4015;48.888;9.226;2024-01-10T11:25:08;160385.81;;;20.45;47.82
7940;BME280;4015;48.888;9.226;2024-01-10T11:27:36;160378.03;;;20.42;48.49
7940;BME280;4015;48.888;9.226;2024-01-10T11:30:02;160380.66;;;20.43;48.01
7940;BME280;4015;48.888;9.226;2024-01-10T11:32:30;160388.38;;;20.46;48.35
7940;BME280;4015;48.888;9.226;2024-01-10T11:34:56;160375.47;;;20.41;48.62
7940;BME280;4015;48.888;9.226;2024-01-10T11:37:23;160374.19;;;20.41;48.24
7940;BME280;4015;48.888;9.226;2024-01-10T11:39:52;160384.53;;;20.45;47.83
7940;BME280;4015;48.888;9.226;2024-01-10T11:42:43;160376.75;;;20.42;48.56
7940;BME280;4015;48.888;9.226;2024-01-10T11:45:09;160383.22;;;20.44;48.26
7940;BME280;4015;48.888;9.226;2024-01-10T11:47:38;160385.81;;;20.45;48.53
7940;BME280;4015;48.888;9.226;2024-01-10T11:50:07;160383.22;;;20.44;48.46
7940;BME280;4015;48.888;9.226;2024-01-10T11:52:33;160381.94;;;20.44;48.35
7940;BME280;4015;48.888;9.226;2024-01-10T11:55:02;160390.94;;;20.47;47.86
7940;BME280;4015;48.888;9.226;2024-01-10T11:57:29;160394.84;;;20.49;48.00
7940;BME280;4015;48.888;9.226;2024-01-10T11:59:57;160393.50;;;20.48;48.13
7940;BME280;4015;48.888;9.226;2024-01-10T12:02:25;160393.50;;;20.48;48.21
7940;BME280;4015;48.888;9.226;2024-01-10T12:04:51;160396.13;;;20.50;48.38
7940;BME280;4015;48.888;9.226;2024-01-10T12:07:17;160388.38;;;20.46;48.35
7940;BME280;4015;48.888;9.226;2024-01-10T12:09:43;160390.94;;;20.47;48.18
7940;BME280;4015;48.888;9.226;2024-01-10T12:12:09;160384.53;;;20.45;48.28
7940;BME280;4015;48.888;9.226;2024-01-10T12:14:36;160376.75;;;20.42;48.02
7940;BME280;4015;48.888;9.226;2024-01-10T12:17:02;160372.91;;;20.40;48.31
7940;BME280;4015;48.888;9.226;2024-01-10T12:19:29;160374.19;;;20.41;48.03
7940;BME280;4015;48.888;9.226;2024-01-10T12:21:54;160378.03;;;20.42;48.75
7940;BME280;4015;48.888;9.226;2024-01-10T12:24:20;160383.22;;;20.44;48.05
7940;BME280;4015;48.888;9.226;2024-01-10T12:26:47;160389.66;;;20.47;48.34
7940;BME280;4015;48.888;9.226;2024-01-10T12:29:13;160383.22;;;20.44;48.29
7940;BME280;4015;48.888;9.226;2024-01-10T12:31:41;160397.41;;;20.50;48.16
7940;BME280;4015;48.888;9.226;2024-01-10T12:34:09;160392.22;;;20.48;48.16
7940;BME280;4015;48.888;9.226;2024-01-10T12:36:35;160385.81;;;20.45;48.60
7940;BME280;4015;48.888;9.226;2024-01-10T12:39:01;160411.53;;;20.56;47.82
7940;BME280;4015;48.888;9.226;2024-01-10T12:41:26;160406.38;;;20.54;48.13
7940;BME280;4015;48.888;9.226;2024-01-10T12:43:52;160392.22;;;20.48;47.93
7940;BME280;4015;48.888;9.226;2024-01-10T12:46:18;160388.38;;;20.46;48.33
7940;BME280;4015;48.888;9.226;2024-01-10T12:48:43;160388.38;;;20.46;47.98
7940;BME280;4015;48.888;9.226;2024-01-10T12:51:10;160394.84;;;20.49;48.52
7940;BME280;4015;48.888;9.226;2024-01-10T12:56:04;160384.53;;;20.45;48.57
7940;BME280;4015;48.888;9.226;2024-01-10T12:58:30;160384.53;;;20.45;48.56
7940;BME280;4015;48.888;9.226;2024-01-10T13:00:56;160384.53;;;20.45;48.40
7940;BME280;4015;48.888;9.226;2024-01-10T13:03:22;160383.22;;;20.44;48.63
7940;BME280;4015;48.888;9.226;2024-01-10T13:05:49;160379.38;;;20.43;48.25
7940;BME280;4015;48.888;9.226;2024-01-10T13:08:14;160384.53;;;20.45;48.40
7940;BME280;4015;48.888;9.226;2024-01-10T13:10:39;160384.53;;;20.45;48.37
7940;BME280;4015;48.888;9.226;2024-01-10T13:13:05;160380.66;;;20.43;48.27
7940;BME280;4015;48.888;9.226;2024-01-10T13:15:30;160379.38;;;20.43;48.58
7940;BME280;4015;48.888;9.226;2024-01-10T13:17:56;160381.94;;;20.44;48.62